Time;durP1;ratioP1;P1;durP2;ratioP2;P2;SDS_P1;SDS_P2;PMS_P1;PMS_P2;Temp;Humidity;BMP_temperature;BMP_pressure;BME280_temperature;BME280_humidity;BME280_pressure;Samples;Min_cycle;Max_cycle;Signal;HPM_P1;HPM_P2
2024/04/10 00:01:04;;;;;;;4.72;1.13;;;12.40;73.10;;;;;;5429083;26;20021;-68
2024/04/10 00:03:31;;;;;;;3.72;1.13;;;12.40;73.10;;;;;;5423791;26;19995;-62
2024/04/10 00:06:06;;;;;;;1.10;0.75;;;12.40;73.00;;;;;;5420271;26;20009;-62
2024/04/10 00:08:33;;;;;;;2.10;0.73;;;12.40;73.10;;;;;;5429288;26;20009;-62
2024/04/10 00:11:02;;;;;;;3.50;1.30;;;12.30;73.20;;;;;;5425830;26;20433;-62
2024/04/10 00:13:29;;;;;;;2.88;1.58;;;12.30;73.40;;;;;;5412801;26;20164;-62
2024/04/10 00:15:58;;;;;;;4.35;1.00;;;12.20;73.50;;;;;;5421189;26;20003;-63
2024/04/10 00:18:24;;;;;;;3.53;0.82;;;12.10;73.60;;;;;;5414448;26;19996;-62
2024/04/10 00:20:50;;;;;;;6.25;1.10;;;12.20;73.80;;;;;;5417991;26;20023;-62
2024/04/10 00:23:18;;;;;;;6.53;0.85;;;12.20;73.80;;;;;;5451892;26;20071;-62
2024/04/10 00:25:53;;;;;;;3.80;1.23;;;12.20;73.90;;;;;;5448605;26;20350;-62
2024/04/10 00:28:20;;;;;;;4.20;0.98;;;12.20;74.00;;;;;;5448643;26;19999;-63
2024/04/10 00:30:46;;;;;;;1.67;1.02;;;12.10;74.10;;;;;;5448348;26;19999;-62
2024/04/10 00:33:12;;;;;;;2.58;1.13;;;12.10;74.30;;;;;;5448895;26;20017;-62
2024/04/10 00:35:38;;;;;;;8.60;1.55;;;12.00;74.50;;;;;;5449116;26;20003;-62
2024/04/10 00:38:04;;;;;;;3.05;1.27;;;11.90;74.60;;;;;;5448649;26;20030;-67
2024/04/10 00:40:30;;;;;;;1.80;1.10;;;11.90;74.90;;;;;;5446062;26;20002;-68
2024/04/10 00:43:01;;;;;;;3.70;1.08;;;11.90;75.00;;;;;;5447663;26;20328;-67
2024/04/10 00:45:27;;;;;;;2.28;1.00;;;11.90;75.10;;;;;;5449236;26;20019;-67
2024/04/10 00:47:53;;;;;;;3.25;0.85;;;11.90;75.10;;;;;;5417472;26;20017;-67
2024/04/10 00:50:19;;;;;;;2.75;1.67;;;11.90;75.10;;;;;;5448570;26;20075;-67
2024/04/10 00:52:45;;;;;;;1.98;1.17;;;11.90;75.00;;;;;;5450024;26;19999;-67
2024/04/10 00:55:15;;;;;;;9.68;1.63;;;12.00;75.00;;;;;;5449198;26;20021;-67
2024/04/10 00:57:42;;;;;;;1.65;0.70;;;12.00;75.00;;;;;;5449108;26;20010;-67
2024/04/10 01:00:10;;;;;;;5.05;1.38;;;11.90;75.10;;;;;;5450354;26;20006;-62
2024/04/10 01:02:36;;;;;;;1.45;1.02;;;11.90;75.10;;;;;;5449055;26;20319;-61
2024/04/10 01:05:02;;;;;;;3.70;1.55;;;12.00;75.10;;;;;;5454679;26;19999;-60
2024/04/10 01:07:28;;;;;;;4.32;1.60;;;11.90;75.20;;;;;;5452306;26;19999;-61
2024/04/10 01:09:54;;;;;;;2.22;1.13;;;11.90;75.30;;;;;;5422922;26;20195;-62
2024/04/10 01:12:20;;;;;;;2.85;1.15;;;11.90;75.40;;;;;;5420921;26;20003;-61
2024/04/10 01:14:47;;;;;;;4.30;0.77;;;12.00;75.40;;;;;;5446395;26;20082;-62
2024/04/10 01:17:13;;;;;;;3.10;0.63;;;12.00;75.30;;;;;;5423541;26;19995;-61
2024/04/10 01:19:39;;;;;;;3.60;1.15;;;12.00;75.10;;;;;;5453117;26;20009;-61
2024/04/10 01:22:05;;;;;;;2.08;0.70;;;12.10;75.10;;;;;;5454437;26;20009;-66
2024/04/10 01:26:11;;;;;;;1.77;1.45;;;12.20;75.10;;;;;;5539219;25;20351;-67
2024/04/10 01:28:37;;;;;;;3.42;1.05;;;12.20;75.10;;;;;;5503466;25;20006;-67
2024/04/10 01:31:03;;;;;;;7.88;0.80;;;12.20;75.20;;;;;;5501627;25;19998;-68
2024/04/10 01:33:30;;;;;;;5.45;0.60;;;12.20;75.70;;;;;;5503300;25;20001;-62
2024/04/10 01:35:56;;;;;;;0.40;0.40;;;12.10;76.00;;;;;;5503162;26;19994;-67
2024/04/10 01:38:25;;;;;;;1.85;0.70;;;12.00;76.30;;;;;;5500938;25;20328;-67
2024/04/10 01:40:51;;;;;;;7.70;1.20;;;11.90;77.20;;;;;;5498390;25;20010;-62
2024/04/10 01:43:17;;;;;;;0.60;0.43;;;11.90;76.80;;;;;;5503493;25;20356;-66
2024/04/10 01:45:43;;;;;;;3.50;0.60;;;11.80;76.90;;;;;;5491664;26;20316;-62
2024/04/10 01:48:09;;;;;;;3.08;1.27;;;11.80;77.30;;;;;;5501687;26;20013;-62
2024/04/10 01:50:34;;;;;;;2.88;0.50;;;11.70;77.50;;;;;;5502201;26;20079;-66
2024/04/10 01:53:00;;;;;;;0.80;0.50;;;11.70;77.50;;;;;;5502793;26;20006;-67
2024/04/10 01:55:26;;;;;;;0.88;0.75;;;11.70;77.60;;;;;;5496198;26;20014;-67
2024/04/10 01:57:52;;;;;;;2.58;0.45;;;11.70;77.60;;;;;;5501620;26;20022;-67
2024/04/10 02:00:22;;;;;;;0.63;0.60;;;11.70;77.70;;;;;;5492330;25;20058;-67
2024/04/10 02:02:48;;;;;;;1.45;0.88;;;11.70;78.00;;;;;;5493584;25;20010;-67
2024/04/10 02:05:15;;;;;;;3.60;0.57;;;11.70;78.10;;;;;;5502408;25;20002;-62
2024/04/10 02:07:42;;;;;;;4.00;0.85;;;11.70;78.10;;;;;;5495209;26;19998;-63
2024/04/10 02:10:08;;;;;;;4.88;1.00;;;11.70;78.70;;;;;;5499808;25;20016;-67
2024/04/10 02:12:34;;;;;;;2.55;0.70;;;11.60;78.70;;;;;;5505190;25;20070;-62
2024/04/10 02:15:00;;;;;;;4.43;1.05;;;11.60;78.70;;;;;;5500189;26;20476;-62
2024/04/10 02:17:25;;;;;;;1.67;0.95;;;11.60;78.70;;;;;;5501427;26;20001;-62
2024/04/10 02:19:51;;;;;;;4.32;0.77;;;11.60;78.80;;;;;;5500805;25;20037;-67
2024/04/10 02:22:17;;;;;;;2.13;0.68;;;11.60;78.80;;;;;;5497528;25;20305;-68
2024/04/10 02:24:44;;;;;;;3.55;1.20;;;11.70;78.70;;;;;;5496299;25;20372;-67
2024/04/10 02:27:10;;;;;;;2.72;1.02;;;11.70;78.80;;;;;;5494538;25;19999;-67
2024/04/10 02:29:36;;;;;;;7.95;1.90;;;11.60;79.00;;;;;;5493434;26;20017;-62
2024/04/10 02:32:03;;;;;;;6.88;0.93;;;11.60;79.00;;;;;;5500605;26;20341;-67
2024/04/10 02:34:29;;;;;;;4.28;1.55;;;11.60;79.30;;;;;;5490921;25;20429;-67
2024/04/10 02:36:55;;;;;;;3.03;0.73;;;11.60;79.40;;;;;;5489212;25;19994;-67
2024/04/10 02:39:21;;;;;;;1.00;0.60;;;11.50;79.40;;;;;;5484781;26;20010;-67
2024/04/10 02:41:49;;;;;;;4.53;1.45;;;11.60;79.40;;;;;;5481592;26;20078;-67
2024/04/10 02:44:15;;;;;;;2.33;1.20;;;11.60;79.50;;;;;;5479384;26;20012;-67
2024/04/10 02:46:41;;;;;;;1.02;0.60;;;11.60;79.60;;;;;;5486619;26;20098;-67
2024/04/10 02:49:07;;;;;;;3.60;1.08;;;11.60;79.50;;;;;;5481873;26;20086;-67
2024/04/10 02:51:33;;;;;;;3.72;0.90;;;11.60;79.50;;;;;;5484422;26;20042;-67
2024/04/10 02:53:58;;;;;;;3.33;1.10;;;11.60;79.40;;;;;;5485943;26;20050;-67
2024/04/10 02:56:25;;;;;;;4.90;1.20;;;11.60;79.30;;;;;;5486534;26;20021;-67
2024/04/10 02:58:51;;;;;;;1.67;1.13;;;11.60;79.40;;;;;;5486313;26;19998;-67
2024/04/10 03:01:17;;;;;;;2.42;0.80;;;11.60;79.40;;;;;;5470681;26;20438;-62
2024/04/10 03:03:43;;;;;;;2.90;0.85;;;11.60;79.50;;;;;;5486067;26;20008;-62
2024/04/10 03:06:09;;;;;;;1.20;0.52;;;11.60;79.60;;;;;;5486073;26;20462;-62
2024/04/10 03:08:36;;;;;;;1.85;0.70;;;11.70;79.60;;;;;;5481962;26;20010;-62
2024/04/10 03:11:04;;;;;;;2.53;1.05;;;11.70;79.60;;;;;;5484402;26;19994;-62
2024/04/10 03:13:32;;;;;;;7.43;1.10;;;11.70;79.60;;;;;;5486028;26;20013;-62
2024/04/10 03:15:58;;;;;;;2.08;0.88;;;11.70;79.60;;;;;;5486112;26;20477;-62
2024/04/10 03:18:24;;;;;;;6.53;1.50;;;11.70;79.60;;;;;;5470987;26;20485;-62
2024/04/10 03:20:50;;;;;;;4.20;0.85;;;11.70;79.70;;;;;;5483504;26;19995;-67
2024/04/10 03:23:16;;;;;;;3.40;1.27;;;11.70;79.80;;;;;;5482951;26;19994;-67
2024/04/10 03:25:42;;;;;;;3.95;1.30;;;11.70;79.70;;;;;;5485817;26;19998;-67
2024/04/10 03:28:08;;;;;;;8.88;1.80;;;11.70;79.90;;;;;;5483629;26;19998;-67
2024/04/10 03:30:34;;;;;;;1.90;1.15;;;11.60;80.10;;;;;;5485813;26;19990;-67
2024/04/10 03:33:00;;;;;;;2.95;1.17;;;11.60;80.10;;;;;;5485118;26;19990;-67
2024/04/10 03:35:27;;;;;;;2.45;0.75;;;11.60;80.10;;;;;;5485477;26;20008;-67
2024/04/10 03:37:53;;;;;;;3.28;1.10;;;11.60;80.60;;;;;;5477253;26;20017;-67
2024/04/10 03:40:18;;;;;;;2.65;0.77;;;11.60;80.00;;;;;;5451982;26;19994;-67
2024/04/10 03:42:44;;;;;;;0.50;0.50;;;11.60;80.00;;;;;;5480908;26;20422;-67
2024/04/10 03:45:14;;;;;;;1.42;0.80;;;11.60;80.00;;;;;;5482319;26;20113;-67
2024/04/10 03:47:41;;;;;;;3.78;0.73;;;11.60;79.90;;;;;;5483988;26;20183;-67
2024/04/10 03:50:08;;;;;;;2.05;1.02;;;11.70;79.90;;;;;;5470767;26;20079;-67
2024/04/10 03:52:34;;;;;;;6.05;2.15;;;11.70;79.90;;;;;;5482595;26;20348;-67
2024/04/10 03:55:00;;;;;;;7.22;1.00;;;11.70;79.90;;;;;;5484726;26;20074;-67
2024/04/10 03:57:27;;;;;;;3.80;1.30;;;11.70;79.80;;;;;;5485558;26;20037;-68
2024/04/10 03:59:53;;;;;;;1.90;1.02;;;11.70;79.90;;;;;;5482921;26;20017;-67
2024/04/10 04:02:19;;;;;;;3.22;1.23;;;11.70;79.60;;;;;;5483664;26;19998;-62
2024/04/10 04:04:45;;;;;;;4.18;1.75;;;11.70;79.60;;;;;;5485259;26;20449;-62
2024/04/10 04:07:11;;;;;;;2.92;1.00;;;11.70;79.60;;;;;;5485300;26;20004;-62
2024/04/10 04:09:37;;;;;;;3.33;2.00;;;11.70;79.60;;;;;;5480222;26;20050;-62
2024/04/10 04:12:03;;;;;;;4.05;0.88;;;11.70;79.60;;;;;;5465960;26;20014;-62
2024/04/10 04:14:30;;;;;;;2.08;1.20;;;11.70;79.60;;;;;;5444572;26;19998;-62
2024/04/10 04:16:55;;;;;;;4.63;1.15;;;11.70;79.70;;;;;;5478278;26;20396;-62
2024/04/10 04:19:21;;;;;;;2.00;0.82;;;11.70;79.70;;;;;;5485161;26;20002;-62
2024/04/10 04:21:48;;;;;;;3.38;1.02;;;11.70;79.70;;;;;;5483423;26;20050;-62
2024/04/10 04:24:14;;;;;;;5.13;1.83;;;11.70;79.70;;;;;;5484421;26;19998;-62
2024/04/10 04:26:39;;;;;;;2.58;1.00;;;11.60;79.60;;;;;;5470783;26;20019;-62
2024/04/10 04:29:05;;;;;;;2.33;1.33;;;11.60;79.70;;;;;;5481692;26;20088;-62
2024/04/10 04:31:32;;;;;;;1.95;1.20;;;11.70;79.60;;;;;;5484083;26;19994;-62
2024/04/10 04:33:59;;;;;;;2.85;1.10;;;11.70;79.40;;;;;;5482177;26;20021;-62
2024/04/10 04:36:25;;;;;;;3.20;1.10;;;11.70;79.30;;;;;;5483213;26;20333;-62
2024/04/10 04:38:51;;;;;;;1.85;1.00;;;11.70;79.20;;;;;;5481201;26;20221;-62
2024/04/10 04:41:17;;;;;;;3.13;1.15;;;11.70;79.10;;;;;;5477361;26;20016;-62
2024/04/10 04:43:43;;;;;;;1.25;1.00;;;11.70;78.90;;;;;;5484917;26;20012;-67
2024/04/10 04:46:11;;;;;;;1.33;1.02;;;11.70;78.90;;;;;;5478806;26;20490;-62
2024/04/10 04:48:37;;;;;;;5.30;0.82;;;11.70;78.90;;;;;;5453438;26;20014;-67
2024/04/10 04:51:07;;;;;;;4.80;0.93;;;11.60;78.90;;;;;;5481325;26;19998;-68
2024/04/10 04:53:34;;;;;;;2.95;1.02;;;11.60;78.70;;;;;;5482352;26;20002;-62
2024/04/10 04:56:00;;;;;;;3.22;0.85;;;11.60;78.70;;;;;;5483403;26;19998;-62
2024/04/10 04:58:26;;;;;;;4.90;0.80;;;11.60;78.70;;;;;;5484359;26;20002;-62
2024/04/10 05:00:51;;;;;;;1.83;0.63;;;11.60;78.60;;;;;;5483392;26;20002;-62
2024/04/10 05:06:05;;;;;;;4.25;0.90;;;11.60;78.60;;;;;;5484349;26;20470;-63
2024/04/10 05:08:30;;;;;;;4.32;1.10;;;11.60;78.40;;;;;;5483921;26;20005;-62
2024/04/10 05:10:56;;;;;;;3.55;1.20;;;11.60;78.40;;;;;;5481549;26;20314;-63
2024/04/10 05:13:21;;;;;;;4.13;1.10;;;11.60;78.40;;;;;;5467206;26;20010;-67
2024/04/10 05:15:47;;;;;;;2.30;1.30;;;11.60;78.40;;;;;;5478038;26;20447;-67
2024/04/10 05:18:13;;;;;;;1.63;0.60;;;11.50;78.30;;;;;;5484174;26;20413;-67
2024/04/10 05:20:38;;;;;;;2.95;0.95;;;11.60;78.40;;;;;;5479770;26;20005;-67
2024/04/10 05:23:04;;;;;;;4.03;1.10;;;11.50;78.20;;;;;;5483892;26;20044;-67
2024/04/10 05:25:30;;;;;;;2.10;1.27;;;11.50;78.30;;;;;;5481041;26;20453;-63
2024/04/10 05:27:56;;;;;;;2.05;0.75;;;11.50;78.40;;;;;;5484090;26;19994;-63
2024/04/10 05:30:21;;;;;;;4.65;1.50;;;11.50;78.40;;;;;;5482077;26;20497;-67
2024/04/10 05:32:47;;;;;;;1.70;0.90;;;11.60;78.40;;;;;;5478580;26;20318;-67
2024/04/10 05:35:14;;;;;;;2.42;1.10;;;11.60;78.30;;;;;;5478507;26;20009;-67
2024/04/10 05:37:40;;;;;;;1.85;0.75;;;11.70;78.30;;;;;;5450469;26;20033;-62
2024/04/10 05:40:13;;;;;;;1.60;0.95;;;11.70;78.10;;;;;;5473202;26;19999;-62
2024/04/10 05:42:40;;;;;;;2.88;1.23;;;11.80;78.00;;;;;;5477619;26;20016;-63
2024/04/10 05:45:08;;;;;;;5.68;1.02;;;11.80;77.90;;;;;;5484091;26;19998;-67
2024/04/10 05:47:38;;;;;;;3.22;0.73;;;11.70;77.90;;;;;;5479738;26;20031;-67
2024/04/10 05:50:05;;;;;;;3.63;1.10;;;11.70;78.00;;;;;;5478584;26;20488;-67
2024/04/10 05:52:31;;;;;;;4.13;0.88;;;11.70;78.10;;;;;;5480861;26;20345;-62
2024/04/10 05:54:57;;;;;;;3.63;1.50;;;11.70;78.30;;;;;;5477645;26;20006;-66
2024/04/10 05:57:24;;;;;;;2.80;0.80;;;11.70;78.20;;;;;;5478314;26;20013;-67
2024/04/10 05:59:57;;;;;;;3.40;0.88;;;11.70;78.30;;;;;;5471410;26;20002;-62
2024/04/10 06:02:23;;;;;;;6.03;1.73;;;11.70;78.20;;;;;;5480209;26;20006;-63
2024/04/10 06:04:53;;;;;;;1.92;0.75;;;11.70;78.20;;;;;;5474683;26;20017;-67
2024/04/10 06:07:19;;;;;;;3.05;0.70;;;11.70;78.10;;;;;;5480358;26;20009;-68
2024/04/10 06:09:45;;;;;;;2.45;1.25;;;11.80;78.00;;;;;;5482075;26;19998;-67
2024/04/10 06:12:10;;;;;;;1.35;0.63;;;11.80;77.90;;;;;;5485753;26;19998;-68
2024/04/10 06:14:36;;;;;;;3.70;1.00;;;11.80;77.90;;;;;;5483323;26;20345;-63
2024/04/10 06:17:02;;;;;;;4.18;1.40;;;11.90;77.70;;;;;;5475165;26;20453;-63
2024/04/10 06:19:28;;;;;;;1.33;1.15;;;11.90;77.60;;;;;;5480940;26;20013;-63
2024/04/10 06:21:54;;;;;;;1.58;0.68;;;12.00;77.60;;;;;;5486679;26;20022;-63
2024/04/10 06:24:21;;;;;;;6.95;1.27;;;12.00;77.50;;;;;;5484118;26;20456;-63
2024/04/10 06:26:47;;;;;;;2.22;0.90;;;12.00;77.40;;;;;;5485286;26;20437;-62
2024/04/10 06:29:13;;;;;;;2.58;0.80;;;12.00;77.50;;;;;;5424977;26;20002;-62
2024/04/10 06:31:40;;;;;;;5.30;1.48;;;12.10;77.40;;;;;;5485702;26;20385;-62
2024/04/10 06:34:06;;;;;;;7.45;1.77;;;12.10;77.30;;;;;;5485251;26;20068;-63
2024/04/10 06:36:32;;;;;;;3.15;1.10;;;12.20;77.20;;;;;;5484379;26;20436;-62
2024/04/10 06:38:57;;;;;;;3.78;0.70;;;12.20;77.00;;;;;;5479217;26;20005;-62
2024/04/10 06:41:23;;;;;;;2.53;0.80;;;12.30;77.00;;;;;;5483500;26;20009;-63
2024/04/10 06:43:49;;;;;;;3.40;1.20;;;12.30;76.80;;;;;;5478270;26;20077;-62
2024/04/10 06:46:16;;;;;;;1.95;0.98;;;12.30;76.70;;;;;;5480334;26;20074;-62
2024/04/10 06:48:44;;;;;;;3.15;1.05;;;12.30;76.60;;;;;;5478504;26;19998;-62
2024/04/10 06:51:10;;;;;;;2.45;1.42;;;12.30;76.40;;;;;;5485293;26;20009;-67
2024/04/10 06:53:37;;;;;;;4.18;0.80;;;12.20;76.20;;;;;;5479752;26;20002;-67
2024/04/10 06:56:06;;;;;;;3.97;0.80;;;12.20;76.10;;;;;;5473767;26;19995;-67
2024/04/10 06:58:39;;;;;;;3.25;0.75;;;12.20;76.20;;;;;;5483982;26;20066;-67
2024/04/10 07:01:08;;;;;;;6.30;1.35;;;12.20;76.10;;;;;;5485289;26;20017;-67
2024/04/10 07:03:36;;;;;;;3.70;0.95;;;12.20;75.70;;;;;;5483971;26;20017;-67
2024/04/10 07:06:11;;;;;;;3.58;0.98;;;12.20;75.60;;;;;;5486148;26;20002;-69
2024/04/10 07:08:42;;;;;;;3.17;1.38;;;12.30;75.50;;;;;;5472153;26;20014;-62
2024/04/10 07:11:11;;;;;;;3.85;1.20;;;12.40;75.40;;;;;;5485242;26;20010;-63
2024/04/10 07:13:42;;;;;;;1.83;1.23;;;12.50;75.20;;;;;;5481223;26;20351;-62
2024/04/10 07:16:07;;;;;;;1.95;0.63;;;12.60;75.00;;;;;;5473074;26;20017;-62
2024/04/10 07:18:33;;;;;;;6.55;1.13;;;12.70;74.90;;;;;;5492377;26;20095;-67
2024/04/10 07:21:07;;;;;;;3.88;0.68;;;12.70;74.70;;;;;;5484130;26;20076;-67
2024/04/10 07:23:35;;;;;;;4.97;1.13;;;12.70;74.80;;;;;;5486163;26;20026;-67
2024/04/10 07:26:19;;;;;;;2.50;0.85;;;12.80;74.80;;;;;;5494882;26;20074;-67
2024/04/10 07:28:48;;;;;;;1.33;1.10;;;12.90;74.80;;;;;;5484431;26;20539;-67
2024/04/10 07:31:16;;;;;;;3.53;1.10;;;12.90;74.60;;;;;;5482980;26;20030;-67
2024/04/10 07:33:41;;;;;;;13.77;1.63;;;13.10;74.50;;;;;;5483673;26;20047;-61
2024/04/10 07:36:12;;;;;;;4.18;0.95;;;13.10;74.10;;;;;;5489411;25;20461;-63
2024/04/10 07:38:38;;;;;;;2.75;1.80;;;13.00;74.10;;;;;;5491464;26;19998;-59
2024/04/10 07:41:04;;;;;;;2.97;1.65;;;12.90;74.00;;;;;;5496937;26;20013;-62
2024/04/10 07:43:31;;;;;;;0.77;0.68;;;12.80;74.20;;;;;;5487570;26;20074;-60
2024/04/10 07:46:04;;;;;;;2.65;0.95;;;12.90;74.50;;;;;;5490380;26;20010;-67
2024/04/10 07:48:30;;;;;;;5.57;1.15;;;12.90;74.20;;;;;;5486423;26;19998;-69
2024/04/10 07:50:56;;;;;;;1.05;0.52;;;12.90;74.20;;;;;;5472124;26;20464;-68
2024/04/10 07:53:21;;;;;;;2.08;0.95;;;12.90;74.10;;;;;;5485891;26;20009;-68
2024/04/10 07:55:47;;;;;;;2.85;1.15;;;13.10;73.70;;;;;;5470222;26;19998;-68
2024/04/10 07:58:12;;;;;;;5.35;1.10;;;13.20;73.60;;;;;;5479909;26;20013;-68
2024/04/10 08:00:39;;;;;;;3.75;1.20;;;13.30;73.30;;;;;;5483849;26;20009;-68
2024/04/10 08:03:05;;;;;;;6.43;0.65;;;13.40;73.20;;;;;;5479612;26;20002;-67
2024/04/10 08:05:31;;;;;;;4.00;0.95;;;13.40;72.70;;;;;;5477156;26;20047;-68
2024/04/10 08:07:57;;;;;;;2.92;1.25;;;13.50;72.70;;;;;;5473303;26;20013;-68
2024/04/10 08:10:22;;;;;;;1.70;0.70;;;13.60;72.30;;;;;;5432334;26;19998;-68
2024/04/10 08:12:49;;;;;;;1.83;1.33;;;13.70;71.90;;;;;;5482148;26;19997;-68
2024/04/10 08:15:15;;;;;;;6.30;1.08;;;13.80;71.90;;;;;;5477563;26;19998;-66
2024/04/10 08:17:41;;;;;;;1.27;1.02;;;13.80;71.00;;;;;;5480391;26;20008;-67
2024/04/10 08:20:07;;;;;;;1.00;0.90;;;13.90;71.30;;;;;;5480237;26;20009;-67
2024/04/10 08:22:33;;;;;;;2.70;1.02;;;14.10;71.20;;;;;;5495112;26;20009;-67
2024/04/10 08:24:59;;;;;;;3.50;1.33;;;14.10;69.90;;;;;;5487535;26;20426;-66
2024/04/10 08:27:24;;;;;;;4.47;1.02;;;14.10;70.20;;;;;;5455043;26;20418;-67
2024/04/10 08:29:50;;;;;;;2.13;0.63;;;14.20;70.20;;;;;;5469917;26;19994;-66
2024/04/10 08:32:16;;;;;;;3.55;0.90;;;14.30;69.70;;;;;;5481536;26;20013;-66
2024/04/10 08:34:41;;;;;;;9.00;1.05;;;14.40;69.50;;;;;;5479422;26;19994;-66
2024/04/10 08:37:07;;;;;;;4.60;1.70;;;14.40;68.80;;;;;;5448550;26;19998;-66
2024/04/10 08:39:32;;;;;;;4.20;1.08;;;14.50;68.60;;;;;;5478697;26;20000;-66
2024/04/10 08:41:59;;;;;;;1.90;0.70;;;14.50;68.30;;;;;;5435178;26;20075;-66
2024/04/10 08:44:26;;;;;;;2.53;0.82;;;14.50;67.80;;;;;;5472860;26;20043;-66
2024/04/10 08:46:55;;;;;;;4.55;0.93;;;14.40;67.90;;;;;;5479563;26;19997;-61
2024/04/10 08:49:23;;;;;;;5.70;1.10;;;14.40;67.40;;;;;;5471835;26;20038;-62
2024/04/10 08:51:50;;;;;;;3.33;1.20;;;14.30;67.40;;;;;;5478498;26;19999;-61
2024/04/10 08:54:18;;;;;;;3.42;0.88;;;14.30;66.20;;;;;;5475399;26;19998;-66
2024/04/10 08:56:43;;;;;;;2.92;1.50;;;14.30;66.30;;;;;;5466683;26;20014;-67
2024/04/10 08:59:09;;;;;;;1.75;0.63;;;14.30;66.80;;;;;;5479159;26;20354;-67
2024/04/10 09:01:37;;;;;;;2.22;0.50;;;14.40;66.50;;;;;;5480168;26;19994;-67
2024/04/10 09:04:10;;;;;;;5.65;1.13;;;14.50;66.30;;;;;;5472345;26;20518;-67
2024/04/10 09:06:37;;;;;;;3.47;0.80;;;14.60;66.20;;;;;;5474459;26;20021;-67
2024/04/10 09:09:06;;;;;;;4.45;0.77;;;14.80;65.80;;;;;;5477515;26;20098;-67
2024/04/10 09:11:32;;;;;;;3.83;1.30;;;14.80;64.80;;;;;;5480005;26;20046;-67
2024/04/10 09:14:10;;;;;;;2.40;1.25;;;14.80;64.30;;;;;;5483510;26;20006;-67
2024/04/10 09:16:37;;;;;;;1.35;0.68;;;14.80;65.10;;;;;;5443980;26;19998;-67
2024/04/10 09:19:13;;;;;;;1.35;0.60;;;14.90;65.00;;;;;;5467007;26;20026;-67
2024/04/10 09:21:40;;;;;;;4.05;0.68;;;15.00;65.00;;;;;;5474700;26;20016;-67
2024/04/10 09:24:07;;;;;;;1.80;1.15;;;15.00;64.20;;;;;;5443501;26;20074;-62
2024/04/10 09:26:34;;;;;;;0.70;0.55;;;14.90;64.30;;;;;;5471239;26;20014;-62
2024/04/10 09:29:11;;;;;;;0.90;0.70;;;14.90;64.30;;;;;;5470043;26;20549;-62
2024/04/10 09:31:39;;;;;;;1.85;1.00;;;14.80;64.70;;;;;;5477802;26;20020;-62
2024/04/10 09:34:08;;;;;;;4.85;1.48;;;14.70;64.20;;;;;;5478182;26;20109;-62
2024/04/10 09:36:35;;;;;;;1.15;0.88;;;14.60;64.70;;;;;;5442127;26;20448;-62
2024/04/10 09:39:06;;;;;;;1.25;0.68;;;14.70;64.80;;;;;;5481434;25;20033;-62
2024/04/10 09:41:35;;;;;;;4.22;1.08;;;14.90;64.60;;;;;;5476439;26;20402;-62
2024/04/10 09:44:03;;;;;;;4.00;0.68;;;15.10;63.80;;;;;;5474253;26;19998;-62
2024/04/10 09:46:35;;;;;;;4.03;0.93;;;15.20;63.30;;;;;;5486419;26;20002;-62
2024/04/10 09:49:25;;;;;;;2.00;1.25;;;15.20;63.30;;;;;;5477431;26;20360;-62
2024/04/10 09:51:56;;;;;;;7.03;1.20;;;15.30;62.70;;;;;;5479554;26;20009;-62
2024/04/10 09:54:24;;;;;;;3.08;1.45;;;15.30;62.20;;;;;;5480861;26;20002;-66
2024/04/10 09:56:51;;;;;;;2.50;1.20;;;15.20;62.40;;;;;;5475988;26;20733;-66
2024/04/10 09:59:19;;;;;;;1.38;1.10;;;15.00;62.50;;;;;;5476709;26;20353;-67
2024/04/10 10:01:45;;;;;;;1.65;0.90;;;15.00;62.70;;;;;;5445517;26;20017;-62
2024/04/10 10:04:11;;;;;;;1.92;1.13;;;14.90;62.60;;;;;;5474191;26;20010;-61
2024/04/10 10:06:37;;;;;;;1.00;0.70;;;14.80;63.60;;;;;;5476670;26;20010;-62
2024/04/10 10:09:02;;;;;;;1.67;0.73;;;14.90;63.30;;;;;;5477997;26;20094;-61
2024/04/10 10:11:29;;;;;;;2.90;0.85;;;14.90;63.30;;;;;;5487589;26;20299;-61
2024/04/10 10:14:04;;;;;;;1.90;0.63;;;15.00;63.50;;;;;;5446834;26;19994;-61
2024/04/10 10:16:31;;;;;;;1.65;0.98;;;15.20;63.50;;;;;;5450178;26;19998;-62
2024/04/10 10:19:02;;;;;;;1.38;1.17;;;15.30;62.80;;;;;;5484199;26;19994;-62
2024/04/10 10:21:30;;;;;;;1.05;0.68;;;15.30;62.70;;;;;;5477616;26;20075;-67
2024/04/10 10:24:04;;;;;;;2.75;0.75;;;15.30;62.50;;;;;;5479584;26;20110;-67
2024/04/10 10:26:30;;;;;;;0.68;0.60;;;15.40;62.50;;;;;;5470078;26;20006;-67
2024/04/10 10:29:06;;;;;;;4.00;0.88;;;15.70;59.90;;;;;;5478329;26;19994;-67
2024/04/10 10:31:34;;;;;;;1.27;0.70;;;15.90;60.00;;;;;;5474025;26;19998;-68
2024/04/10 10:34:01;;;;;;;2.50;0.70;;;16.10;59.10;;;;;;5479219;26;20457;-63
2024/04/10 10:36:34;;;;;;;2.95;1.38;;;16.20;58.60;;;;;;5471318;26;19998;-63
2024/04/10 10:39:08;;;;;;;2.65;0.60;;;16.10;58.80;;;;;;5466886;26;20467;-62
2024/04/10 10:41:34;;;;;;;4.90;0.70;;;16.10;58.90;;;;;;5471806;26;20030;-63
2024/04/10 10:44:00;;;;;;;1.85;0.50;;;16.20;57.70;;;;;;5478414;26;19998;-62
2024/04/10 10:46:27;;;;;;;2.95;0.45;;;16.20;56.80;;;;;;5484663;26;20075;-63
2024/04/10 10:48:53;;;;;;;2.95;0.90;;;16.10;55.90;;;;;;5477903;26;20330;-62
2024/04/10 10:51:19;;;;;;;1.95;0.50;;;16.10;54.80;;;;;;5475281;26;20002;-61
2024/04/10 10:53:48;;;;;;;4.22;0.60;;;16.20;55.50;;;;;;5480262;26;20445;-62
2024/04/10 10:56:30;;;;;;;1.08;0.60;;;16.30;54.40;;;;;;5479865;26;20002;-63
2024/04/10 10:59:07;;;;;;;1.38;0.47;;;16.40;54.40;;;;;;5476454;26;19994;-62
2024/04/10 11:01:37;;;;;;;1.67;0.82;;;16.30;53.90;;;;;;5479237;26;20322;-62
2024/04/10 11:04:18;;;;;;;0.40;0.30;;;16.10;54.40;;;;;;5478994;26;19998;-62
2024/04/10 11:06:44;;;;;;;1.75;0.60;;;16.20;54.90;;;;;;5479125;26;20009;-67
2024/04/10 11:09:15;;;;;;;3.05;0.70;;;16.30;55.00;;;;;;5476110;26;19998;-68
2024/04/10 11:11:41;;;;;;;1.48;0.50;;;16.30;54.20;;;;;;5477394;26;20441;-67
2024/04/10 11:14:22;;;;;;;2.70;0.65;;;16.30;53.70;;;;;;5481507;26;20362;-68
2024/04/10 11:16:57;;;;;;;4.05;0.55;;;16.30;53.90;;;;;;5480666;26;20018;-67
2024/04/10 11:19:23;;;;;;;0.50;0.47;;;16.30;54.50;;;;;;5476738;26;20013;-67
2024/04/10 11:21:48;;;;;;;1.73;0.50;;;16.50;54.60;;;;;;5470632;26;20344;-68
2024/04/10 11:24:14;;;;;;;4.03;1.50;;;16.70;54.60;;;;;;5469772;26;20046;-67
2024/04/10 11:26:39;;;;;;;1.38;0.75;;;16.90;52.60;;;;;;5477432;26;19998;-68
2024/04/10 11:29:05;;;;;;;3.20;0.50;;;16.70;52.40;;;;;;5476191;26;19994;-63
2024/04/10 11:31:31;;;;;;;0.50;0.30;;;16.50;52.50;;;;;;5477116;26;19995;-62
2024/04/10 11:33:56;;;;;;;1.77;0.40;;;16.30;53.30;;;;;;5479499;26;19994;-63
2024/04/10 11:36:22;;;;;;;3.35;0.52;;;16.50;53.70;;;;;;5479189;26;20012;-62
2024/04/10 11:38:48;;;;;;;1.80;0.57;;;16.70;52.90;;;;;;5475044;26;20013;-62
2024/04/10 11:41:14;;;;;;;1.38;0.50;;;16.60;52.00;;;;;;5473366;26;20433;-62
2024/04/10 11:43:40;;;;;;;1.60;0.50;;;16.40;51.90;;;;;;5473964;26;20061;-62
2024/04/10 11:46:09;;;;;;;2.55;0.65;;;16.50;52.20;;;;;;5478574;26;20326;-62
2024/04/10 11:48:35;;;;;;;1.23;0.68;;;16.40;52.40;;;;;;5480202;26;20005;-62
2024/04/10 11:51:00;;;;;;;1.10;0.50;;;16.40;52.60;;;;;;5474029;26;20078;-62
2024/04/10 11:53:28;;;;;;;0.40;0.32;;;16.50;52.70;;;;;;5480602;26;20407;-62
2024/04/10 11:55:53;;;;;;;3.80;0.38;;;16.40;52.30;;;;;;5480653;26;20542;-62
2024/04/10 11:58:19;;;;;;;1.20;0.50;;;16.30;52.20;;;;;;5477094;26;20002;-62
2024/04/10 12:00:45;;;;;;;1.60;0.30;;;16.50;52.50;;;;;;5471946;26;20070;-62
2024/04/10 12:03:11;;;;;;;2.40;0.35;;;16.70;52.00;;;;;;5479486;26;20078;-61
2024/04/10 12:05:37;;;;;;;2.20;0.50;;;17.00;51.80;;;;;;5478780;26;19994;-67
2024/04/10 12:08:05;;;;;;;1.50;0.50;;;17.30;50.70;;;;;;5476183;26;20337;-67
2024/04/10 12:10:32;;;;;;;3.97;0.65;;;17.50;49.70;;;;;;5476921;26;20539;-67
2024/04/10 12:12:58;;;;;;;0.40;0.40;;;17.50;49.60;;;;;;5479580;26;20437;-62
2024/04/10 12:15:24;;;;;;;2.63;0.85;;;17.70;50.10;;;;;;5476643;26;20410;-62
2024/04/10 12:17:51;;;;;;;3.53;0.82;;;18.00;49.80;;;;;;5476822;26;20010;-62
2024/04/10 12:20:17;;;;;;;2.47;1.67;;;18.20;49.10;;;;;;5479641;26;20002;-63
2024/04/10 12:22:42;;;;;;;1.35;0.85;;;18.30;47.40;;;;;;5476752;26;20144;-62
2024/04/10 12:25:09;;;;;;;0.60;0.30;;;18.30;48.30;;;;;;5472627;26;20055;-62
2024/04/10 12:27:34;;;;;;;0.40;0.40;;;18.40;47.90;;;;;;5468590;26;20333;-62
2024/04/10 12:30:00;;;;;;;1.25;0.40;;;18.50;47.50;;;;;;5472699;26;19999;-62
2024/04/10 12:32:25;;;;;;;0.43;0.20;;;18.60;46.20;;;;;;5476999;26;20009;-62
2024/04/10 12:34:58;;;;;;;0.90;0.32;;;18.60;45.80;;;;;;5474702;26;20101;-62
2024/04/10 12:40:09;;;;;;;0.57;0.30;;;18.60;45.30;;;;;;5473845;26;20013;-63
2024/04/10 12:42:34;;;;;;;1.17;0.30;;;18.50;45.90;;;;;;5469869;26;20017;-63
2024/04/10 12:45:00;;;;;;;0.63;0.28;;;18.70;44.20;;;;;;5475977;26;20378;-62
2024/04/10 12:47:27;;;;;;;0.60;0.20;;;18.80;44.20;;;;;;5475458;26;20080;-67
2024/04/10 12:49:52;;;;;;;1.60;0.40;;;18.90;44.30;;;;;;5473677;26;20002;-67
2024/04/10 12:52:18;;;;;;;2.13;0.28;;;18.90;42.20;;;;;;5471870;26;20518;-67
2024/04/10 12:54:44;;;;;;;2.42;0.65;;;18.90;42.60;;;;;;5472234;26;20038;-66